createdAt,value
2022-08-03T00:00:41.582Z,3.85
2022-08-03T00:03:27.371Z,4.20
2022-08-03T00:06:13.703Z,3.92
2022-08-03T00:08:59.259Z,4.40
2022-08-03T00:11:46.474Z,4.10
2022-08-03T00:14:32.686Z,3.92
2022-08-03T00:17:19.284Z,3.58
2022-08-03T00:20:05.321Z,4.50
2022-08-03T00:22:51.575Z,4.13
2022-08-03T00:25:37.659Z,4.25
2022-08-03T00:28:24.599Z,4.13
2022-08-03T00:31:13.536Z,4.07
2022-08-03T00:34:03.476Z,3.70
2022-08-03T00:36:53.189Z,3.85
2022-08-03T00:39:40.961Z,5.28
2022-08-03T00:42:27.822Z,6.30
2022-08-03T00:45:17.914Z,6.30
2022-08-03T00:48:05.407Z,5.30
2022-08-03T00:50:52.339Z,5.47
2022-08-03T00:53:40.222Z,6.10
2022-08-03T00:56:26.879Z,5.30
2022-08-03T00:59:17.296Z,5.68
2022-08-03T01:02:04.454Z,6.30
2022-08-03T01:04:51.490Z,5.93
2022-08-03T01:07:45.771Z,5.40
2022-08-03T01:10:57.697Z,6.38
2022-08-03T01:14:17.877Z,6.50
2022-08-03T01:17:13.747Z,6.15
2022-08-03T01:20:03.766Z,6.35
2022-08-03T01:22:58.728Z,6.70
2022-08-03T01:26:04.094Z,7.25
2022-08-03T01:29:02.174Z,6.88
2022-08-03T01:32:53.494Z,5.90
2022-08-03T01:35:27.434Z,5.30
2022-08-03T01:38:17.563Z,5.03
2022-08-03T01:41:07.215Z,5.13
2022-08-03T01:44:27.324Z,5.10
2022-08-03T01:47:00.787Z,5.70
2022-08-03T01:49:48.454Z,4.85
2022-08-03T01:52:37.437Z,5.43
2022-08-03T01:55:25.524Z,4.30
2022-08-03T01:58:14.134Z,5.25
2022-08-03T02:01:04.477Z,5.03
2022-08-03T02:04:00.143Z,4.45
2022-08-03T02:07:00.646Z,5.30
2022-08-03T02:09:51.708Z,5.13
2022-08-03T02:12:39.056Z,4.53
2022-08-03T02:15:25.777Z,5.30
2022-08-03T02:18:13.339Z,4.63
2022-08-03T02:21:05.522Z,4.43
2022-08-03T02:23:57.627Z,4.80
2022-08-03T02:26:44.267Z,4.57
2022-08-03T02:29:39.315Z,4.20
2022-08-03T02:32:31.874Z,5.07
2022-08-03T02:35:19.803Z,4.28
2022-08-03T02:38:08.304Z,4.35
2022-08-03T02:40:56.125Z,5.47
2022-08-03T02:44:06.722Z,4.68
2022-08-03T02:46:50.091Z,4.20
2022-08-03T02:49:49.811Z,4.88
2022-08-03T02:52:38.293Z,5.43
2022-08-03T02:55:27.327Z,5.28
2022-08-03T02:58:18.607Z,4.97
2022-08-03T03:01:04.968Z,4.53
2022-08-03T03:03:54.426Z,5.00
2022-08-03T03:06:42.433Z,5.07
2022-08-03T03:09:41.611Z,5.28
2022-08-03T03:12:29.737Z,4.57
2022-08-03T03:15:15.925Z,4.82
2022-08-03T03:18:03.100Z,5.22
2022-08-03T03:20:53.190Z,4.97
2022-08-03T03:23:41.258Z,4.90
2022-08-03T03:26:28.851Z,5.55
2022-08-03T03:29:15.924Z,5.28
2022-08-03T03:32:02.658Z,5.47
2022-08-03T03:34:49.613Z,5.57
2022-08-03T03:37:37.496Z,5.50
2022-08-03T03:40:23.122Z,5.18
2022-08-03T03:43:10.950Z,4.93
2022-08-03T03:45:58.336Z,4.93
2022-08-03T03:48:44.836Z,5.35
2022-08-03T03:51:31.010Z,4.93
2022-08-03T03:54:17.745Z,4.93
2022-08-03T03:57:03.688Z,5.43
2022-08-03T03:59:50.039Z,5.00
2022-08-03T04:02:36.465Z,5.40
2022-08-03T04:05:45.765Z,4.82
2022-08-03T04:08:50.864Z,5.82
2022-08-03T04:11:41.147Z,5.40
2022-08-03T04:14:30.117Z,6.28
2022-08-03T04:17:17.630Z,4.97
2022-08-03T04:20:04.995Z,5.90
2022-08-03T04:22:51.677Z,5.63
2022-08-03T04:25:40.724Z,6.05
2022-08-03T04:28:30.725Z,5.45
2022-08-03T04:31:23.485Z,5.25
2022-08-03T04:34:10.397Z,5.00
2022-08-03T04:37:00.431Z,5.22
2022-08-03T04:39:49.945Z,5.35
2022-08-03T04:45:30.376Z,5.95
2022-08-03T04:48:17.758Z,5.10
2022-08-03T04:51:11.580Z,5.50
2022-08-03T04:53:59.672Z,5.57
2022-08-03T04:56:46.190Z,4.75
2022-08-03T04:59:33.312Z,5.35
2022-08-03T05:02:25.807Z,6.10
2022-08-03T05:05:12.140Z,6.65
2022-08-03T05:07:59.430Z,5.68
2022-08-03T05:10:47.688Z,5.88
2022-08-03T05:13:34.642Z,5.22
2022-08-03T05:16:21.512Z,5.28
2022-08-03T05:19:11.630Z,5.32
2022-08-03T05:21:59.232Z,4.68
2022-08-03T05:24:47.686Z,4.18
2022-08-03T05:27:34.139Z,4.60
2022-08-03T05:30:31.335Z,5.97
2022-08-03T05:33:20.362Z,6.13
2022-08-03T05:36:06.786Z,5.32
2022-08-03T05:38:53.133Z,5.10
2022-08-03T05:41:41.772Z,6.00
2022-08-03T05:44:38.847Z,5.40
2022-08-03T05:47:27.618Z,4.57
2022-08-03T05:50:14.718Z,4.70
2022-08-03T05:53:02.578Z,4.60
2022-08-03T05:55:54.776Z,4.85
2022-08-03T05:58:46.585Z,4.93
2022-08-03T06:01:33.529Z,4.25
2022-08-03T06:04:33.376Z,4.80
2022-08-03T06:07:25.398Z,5.10
2022-08-03T06:10:35.941Z,5.07
2022-08-03T06:13:22.640Z,4.65
2022-08-03T06:16:10.705Z,4.20
2022-08-03T06:18:57.990Z,4.57
2022-08-03T06:21:45.569Z,4.25
2022-08-03T06:24:55.970Z,4.80
2022-08-03T06:28:53.118Z,4.35
2022-08-03T06:31:35.413Z,4.53
2022-08-03T06:34:41.768Z,3.60
2022-08-03T06:37:30.404Z,4.50
2022-08-03T06:40:24.482Z,3.72
2022-08-03T06:43:16.054Z,3.80
2022-08-03T06:46:08.523Z,4.45
2022-08-03T06:48:56.802Z,4.75
2022-08-03T06:52:04.327Z,4.07
2022-08-03T06:54:53.550Z,3.78
2022-08-03T06:57:41.126Z,4.65
2022-08-03T07:00:32.200Z,3.80
2022-08-03T07:03:24.009Z,4.30
2022-08-03T07:06:14.595Z,3.80
2022-08-03T07:09:05.862Z,3.38
2022-08-03T07:12:00.029Z,3.47
2022-08-03T07:14:55.604Z,3.42
2022-08-03T07:17:51.123Z,3.25
2022-08-03T07:20:45.265Z,3.00
2022-08-03T07:23:38.549Z,3.92
2022-08-03T07:26:31.980Z,2.80
2022-08-03T07:29:26.573Z,2.83
2022-08-03T07:32:33.427Z,3.22
2022-08-03T07:35:51.532Z,3.03
2022-08-03T07:38:39.870Z,3.17
2022-08-03T07:41:38.611Z,4.85
2022-08-03T07:44:28.945Z,3.38
2022-08-03T07:47:36.072Z,3.53
2022-08-03T07:53:11.598Z,3.50
2022-08-03T07:56:06.385Z,3.40
2022-08-03T08:01:50.730Z,2.70
2022-08-03T08:04:37.076Z,2.90
2022-08-03T08:07:23.992Z,2.88
2022-08-03T08:10:11.152Z,3.20
2022-08-03T08:12:57.946Z,2.78
2022-08-03T08:15:46.689Z,3.20
2022-08-03T08:18:34.788Z,2.72
2022-08-03T08:21:24.311Z,2.75
2022-08-03T08:24:18.120Z,2.90
2022-08-03T08:27:07.516Z,2.67
2022-08-03T08:30:02.516Z,3.05
2022-08-03T08:32:55.483Z,10.50
2022-08-03T08:35:47.542Z,3.40
2022-08-03T08:38:36.283Z,3.55
2022-08-03T08:41:22.497Z,3.30
2022-08-03T08:44:10.270Z,4.40
2022-08-03T08:46:58.041Z,2.80
2022-08-03T08:50:03.830Z,2.67
2022-08-03T08:52:57.255Z,2.40
2022-08-03T08:55:58.852Z,2.90
2022-08-03T08:59:11.244Z,2.72
2022-08-03T09:01:59.112Z,2.58
2022-08-03T09:04:49.190Z,2.50
2022-08-03T09:07:37.303Z,2.60
2022-08-03T09:10:33.358Z,2.35
2022-08-03T09:13:21.651Z,2.67
2022-08-03T09:16:13.276Z,2.55
2022-08-03T09:19:13.311Z,2.63
2022-08-03T09:22:18.668Z,2.40
2022-08-03T09:25:24.457Z,2.70
2022-08-03T09:28:58.110Z,2.50
2022-08-03T09:31:43.164Z,2.40
2022-08-03T09:34:41.215Z,2.63
2022-08-03T09:38:11.859Z,2.50
2022-08-03T09:40:40.832Z,2.45
2022-08-03T09:43:33.634Z,2.40
2022-08-03T09:46:24.307Z,2.65
2022-08-03T09:49:13.987Z,2.92
2022-08-03T09:52:38.650Z,2.38
2022-08-03T09:56:36.163Z,2.38
2022-08-03T09:58:49.249Z,2.70
2022-08-03T10:01:41.555Z,2.60
2022-08-03T10:04:28.640Z,2.90
2022-08-03T10:07:15.194Z,2.63
2022-08-03T10:10:30.872Z,2.63
2022-08-03T10:13:15.923Z,2.67
2022-08-03T10:16:23.291Z,2.83
2022-08-03T10:19:14.716Z,2.60
2022-08-03T10:22:19.624Z,2.90
2022-08-03T10:25:16.955Z,3.05
2022-08-03T10:28:04.927Z,2.67
2022-08-03T10:30:53.741Z,2.63
2022-08-03T10:33:49.720Z,2.90
2022-08-03T10:36:40.247Z,2.65
2022-08-03T10:39:31.198Z,2.72
2022-08-03T10:42:16.897Z,3.03
2022-08-03T10:45:06.948Z,2.53
2022-08-03T10:47:54.222Z,2.58
2022-08-03T10:50:43.474Z,2.50
2022-08-03T10:53:40.624Z,3.13
2022-08-03T10:56:52.190Z,2.83
2022-08-03T10:59:47.106Z,2.70
2022-08-03T11:03:06.398Z,3.28
2022-08-03T11:08:41.453Z,2.88
2022-08-03T11:11:28.717Z,3.10
2022-08-03T11:14:24.003Z,2.85
2022-08-03T11:17:14.540Z,2.80
2022-08-03T11:20:01.518Z,2.90
2022-08-03T11:22:51.588Z,2.90
2022-08-03T11:26:10.068Z,2.55
2022-08-03T11:29:31.004Z,3.10
2022-08-03T11:32:48.518Z,2.72
2022-08-03T11:35:47.254Z,2.83
2022-08-03T11:38:33.777Z,3.00
2022-08-03T11:41:42.913Z,2.70
2022-08-03T11:44:40.622Z,3.00
2022-08-03T11:47:28.709Z,2.95
2022-08-03T11:50:19.060Z,2.83
2022-08-03T11:53:06.100Z,2.88
2022-08-03T11:55:53.970Z,2.78
2022-08-03T11:59:17.209Z,2.53
2022-08-03T12:02:07.123Z,2.70
2022-08-03T12:04:58.611Z,2.67
2022-08-03T12:08:03.642Z,2.72
2022-08-03T12:10:52.533Z,2.45
2022-08-03T12:14:08.386Z,2.88
2022-08-03T12:16:52.482Z,2.85
2022-08-03T12:19:43.734Z,3.05
2022-08-03T12:22:42.360Z,2.70
2022-08-03T12:25:39.178Z,2.85
2022-08-03T12:28:37.044Z,2.83
2022-08-03T12:31:25.128Z,3.08
2022-08-03T12:34:11.469Z,2.60
2022-08-03T12:36:57.901Z,3.30
2022-08-03T12:40:00.493Z,2.60
2022-08-03T12:42:50.509Z,2.80
2022-08-03T12:45:36.966Z,2.70
2022-08-03T12:48:24.271Z,3.10
2022-08-03T12:51:14.467Z,2.28
2022-08-03T12:54:00.789Z,2.60
2022-08-03T12:57:01.671Z,2.65
2022-08-03T12:59:52.806Z,2.88
2022-08-03T13:02:39.495Z,2.72
2022-08-03T13:05:43.612Z,2.70
2022-08-03T13:08:34.047Z,2.83
2022-08-03T13:11:47.579Z,2.80
2022-08-03T13:14:32.529Z,2.83
2022-08-03T13:17:19.577Z,2.72
2022-08-03T13:20:06.323Z,2.90
2022-08-03T13:22:52.331Z,2.83
2022-08-03T13:25:38.719Z,2.88
2022-08-03T13:28:42.120Z,2.65
2022-08-03T13:31:28.106Z,2.70
2022-08-03T13:34:14.627Z,3.08
2022-08-03T13:37:09.831Z,2.72
2022-08-03T13:40:03.799Z,2.50
2022-08-03T13:42:50.856Z,2.25
2022-08-03T13:45:37.139Z,3.30
2022-08-03T13:48:37.096Z,3.20
2022-08-03T13:51:24.926Z,3.15
2022-08-03T13:54:11.013Z,3.03
2022-08-03T13:57:00.767Z,3.58
2022-08-03T14:00:16.671Z,3.35
2022-08-03T14:03:15.137Z,3.30
2022-08-03T14:06:01.295Z,3.05
2022-08-03T14:08:50.770Z,2.83
2022-08-03T14:12:41.392Z,3.03
2022-08-03T14:15:28.727Z,2.80
2022-08-03T14:18:16.113Z,3.15
2022-08-03T14:21:15.905Z,3.85
2022-08-03T14:24:02.754Z,2.92
2022-08-03T14:26:48.898Z,2.90
2022-08-03T14:29:34.957Z,3.03
2022-08-03T14:32:22.779Z,2.95
2022-08-03T14:35:09.677Z,3.03
2022-08-03T14:37:56.233Z,3.15
2022-08-03T14:40:42.481Z,3.05
2022-08-03T14:43:33.947Z,3.28
2022-08-03T14:46:20.836Z,2.92
2022-08-03T14:50:31.146Z,3.10
2022-08-03T14:52:21.209Z,3.28
2022-08-03T14:55:07.712Z,3.20
2022-08-03T14:57:53.479Z,3.53
2022-08-03T15:00:39.649Z,3.22
2022-08-03T15:03:25.750Z,2.95
2022-08-03T15:06:12.201Z,2.65
2022-08-03T15:09:21.471Z,2.80
2022-08-03T15:12:06.783Z,2.97
2022-08-03T15:14:52.677Z,3.30
2022-08-03T15:17:39.328Z,3.42
2022-08-03T15:20:46.902Z,3.17
2022-08-03T15:23:33.433Z,2.83
2022-08-03T15:26:41.397Z,2.90
2022-08-03T15:30:08.893Z,2.95
2022-08-03T15:32:41.611Z,3.03
2022-08-03T15:35:35.462Z,3.00
2022-08-03T15:38:26.523Z,3.00
2022-08-03T15:41:14.475Z,3.10
2022-08-03T15:44:04.201Z,2.85
2022-08-03T15:47:00.006Z,2.80
2022-08-03T15:49:45.943Z,3.05
2022-08-03T15:52:32.150Z,2.72
2022-08-03T15:55:17.726Z,3.03
2022-08-03T15:59:04.118Z,3.00
2022-08-03T16:01:11.189Z,2.83
2022-08-03T16:03:58.548Z,2.70
2022-08-03T16:06:44.458Z,3.00
2022-08-03T16:09:43.470Z,3.75
2022-08-03T16:12:29.958Z,3.72
2022-08-03T16:15:16.634Z,3.33
2022-08-03T16:18:06.027Z,3.15
2022-08-03T16:20:55.564Z,2.95
2022-08-03T16:23:47.336Z,3.08
2022-08-03T16:26:36.868Z,3.22
2022-08-03T16:29:23.815Z,2.75
2022-08-03T16:32:12.109Z,2.75
2022-08-03T16:35:03.208Z,2.80
2022-08-03T16:37:56.830Z,2.85
2022-08-03T16:40:43.373Z,2.85
2022-08-03T16:43:30.067Z,3.00
2022-08-03T16:46:16.252Z,3.25
2022-08-03T16:49:02.717Z,3.20
2022-08-03T16:51:50.447Z,4.70
2022-08-03T16:54:36.565Z,3.42
2022-08-03T16:57:56.265Z,3.75
2022-08-03T17:00:33.602Z,3.13
2022-08-03T17:03:24.480Z,3.28
2022-08-03T17:06:11.001Z,3.00
2022-08-03T17:08:58.978Z,3.13
2022-08-03T17:11:48.345Z,3.00
2022-08-03T17:14:34.660Z,2.92
2022-08-03T17:17:56.252Z,3.28
2022-08-03T17:20:40.951Z,3.95
2022-08-03T17:23:39.407Z,3.58
2022-08-03T17:26:30.595Z,3.30
2022-08-03T17:29:25.077Z,3.25
2022-08-03T17:32:18.082Z,3.92
2022-08-03T17:35:11.172Z,3.08
2022-08-03T17:38:03.732Z,5.00
2022-08-03T17:40:52.143Z,4.30
2022-08-03T17:44:13.352Z,5.15
2022-08-03T17:46:47.175Z,4.85
2022-08-03T17:49:40.173Z,6.85
2022-08-03T17:52:42.087Z,4.60
2022-08-03T17:59:08.642Z,4.10
2022-08-03T18:02:35.282Z,3.72
2022-08-03T18:05:22.249Z,10.63
2022-08-03T18:08:11.683Z,10.40
2022-08-03T18:11:21.983Z,4.10
2022-08-03T18:14:31.717Z,4.20
2022-08-03T18:17:55.948Z,6.30
2022-08-03T18:20:42.084Z,4.28
2022-08-03T18:23:37.210Z,4.93
2022-08-03T18:26:26.057Z,4.72
2022-08-03T18:29:14.158Z,4.00
2022-08-03T18:32:04.036Z,3.97
2022-08-03T18:34:58.703Z,4.35
2022-08-03T18:37:51.597Z,4.20
2022-08-03T18:40:48.783Z,4.40
2022-08-03T18:43:47.688Z,5.00
2022-08-03T18:47:18.307Z,4.90
2022-08-03T18:50:40.297Z,4.40
2022-08-03T18:54:02.564Z,4.20
2022-08-03T18:56:59.304Z,5.10
2022-08-03T18:59:55.938Z,4.22
2022-08-03T19:03:03.205Z,4.45
2022-08-03T19:06:08.569Z,4.50
2022-08-03T19:09:12.855Z,4.63
2022-08-03T19:12:11.069Z,4.28
2022-08-03T19:15:13.670Z,5.05
2022-08-03T19:18:10.514Z,5.80
2022-08-03T19:20:57.647Z,5.90
2022-08-03T19:23:46.051Z,5.95
2022-08-03T19:26:36.527Z,6.10
2022-08-03T19:29:24.418Z,5.50
2022-08-03T19:32:32.185Z,6.25
2022-08-03T19:35:51.411Z,6.25
2022-08-03T19:38:28.202Z,6.55
2022-08-03T19:41:18.253Z,5.20
2022-08-03T19:44:09.456Z,5.93
2022-08-03T19:47:10.020Z,5.88
2022-08-03T19:50:06.001Z,6.10
2022-08-03T19:53:05.073Z,6.40
2022-08-03T19:55:52.723Z,6.43
2022-08-03T19:58:39.330Z,7.35
2022-08-03T20:01:26.250Z,7.50
2022-08-03T20:04:15.841Z,6.80
2022-08-03T20:07:04.211Z,7.22
2022-08-03T20:09:56.595Z,7.60
2022-08-03T20:12:44.658Z,6.37
2022-08-03T20:15:32.264Z,6.57
2022-08-03T20:18:27.382Z,7.38
2022-08-03T20:21:19.691Z,6.75
2022-08-03T20:24:23.745Z,7.03
2022-08-03T20:27:16.004Z,7.32
2022-08-03T20:30:07.555Z,6.90
2022-08-03T20:32:56.115Z,7.28
2022-08-03T20:35:45.988Z,7.75
2022-08-03T20:38:46.865Z,7.32
2022-08-03T20:41:34.390Z,6.55
2022-08-03T20:44:25.917Z,6.13
2022-08-03T20:47:12.089Z,5.95
2022-08-03T20:50:10.607Z,5.82
2022-08-03T20:53:02.993Z,6.03
2022-08-03T20:56:02.096Z,6.20
2022-08-03T20:58:51.352Z,5.93
2022-08-03T21:01:39.233Z,6.38
2022-08-03T21:04:25.618Z,6.22
2022-08-03T21:07:19.053Z,5.82
2022-08-03T21:10:10.690Z,6.15
2022-08-03T21:12:55.766Z,4.90
2022-08-03T21:13:17.685Z,5.80
2022-08-03T21:16:13.496Z,5.35
2022-08-03T21:19:03.861Z,5.47
2022-08-03T21:21:52.011Z,5.85
2022-08-03T21:24:44.316Z,5.30
2022-08-03T21:27:31.840Z,6.05
2022-08-03T21:30:19.037Z,5.60
2022-08-03T21:33:08.094Z,5.95
2022-08-03T21:35:56.869Z,5.93
2022-08-03T21:38:44.365Z,5.30
2022-08-03T21:41:44.086Z,5.32
2022-08-03T21:44:32.477Z,5.43
2022-08-03T21:47:21.275Z,5.60
2022-08-03T21:50:10.681Z,5.25
2022-08-03T21:53:04.330Z,5.72
2022-08-03T21:56:22.111Z,5.80
2022-08-03T21:59:14.493Z,5.63
2022-08-03T22:02:00.601Z,5.75
2022-08-03T22:04:55.406Z,5.07
2022-08-03T22:07:51.099Z,5.65
2022-08-03T22:10:48.001Z,5.20
2022-08-03T22:13:43.755Z,5.82
2022-08-03T22:16:30.951Z,5.35
2022-08-03T22:19:20.215Z,5.30
2022-08-03T22:22:09.435Z,5.82
2022-08-03T22:25:06.046Z,6.03
2022-08-03T22:27:53.981Z,5.75
2022-08-03T22:30:43.920Z,5.75
2022-08-03T22:33:57.340Z,5.90
2022-08-03T22:36:44.138Z,5.60
2022-08-03T22:39:33.750Z,5.47
2022-08-03T22:42:21.846Z,5.53
2022-08-03T22:46:07.013Z,5.53
2022-08-03T22:48:22.691Z,6.00
2022-08-03T22:51:10.188Z,5.60
2022-08-03T22:53:57.989Z,5.70
2022-08-03T22:56:48.191Z,5.47
2022-08-03T22:59:40.012Z,5.65
2022-08-03T23:02:35.472Z,6.13
2022-08-03T23:06:00.727Z,5.80
2022-08-03T23:08:32.766Z,5.28
2022-08-03T23:11:19.637Z,6.03
2022-08-03T23:14:12.116Z,5.85
2022-08-03T23:17:04.355Z,5.57
2022-08-03T23:19:53.877Z,6.22
2022-08-03T23:22:43.304Z,6.00
2022-08-03T23:25:34.546Z,5.75
2022-08-03T23:28:22.416Z,6.15
2022-08-03T23:31:08.618Z,6.03
2022-08-03T23:34:16.466Z,6.10
2022-08-03T23:37:09.800Z,6.10
2022-08-03T23:39:57.309Z,5.47
2022-08-03T23:42:45.597Z,5.72
2022-08-03T23:45:34.817Z,6.30
2022-08-03T23:48:21.659Z,6.03
2022-08-03T23:51:14.056Z,6.30
2022-08-03T23:54:25.902Z,6.35
2022-08-03T23:58:02.500Z,6.32
